createdAt,value
2023-05-06T00:00:58.923Z,27.98
2023-05-06T00:03:25.384Z,27.65
2023-05-06T00:05:52.352Z,29.63
2023-05-06T00:08:18.656Z,30.48
2023-05-06T00:10:45.200Z,27.70
2023-05-06T00:13:12.737Z,36.63
2023-05-06T00:15:39.638Z,29.92
2023-05-06T00:18:06.449Z,28.95
2023-05-06T00:20:32.958Z,27.33
2023-05-06T00:22:59.738Z,31.35
2023-05-06T00:25:26.064Z,29.73
2023-05-06T00:27:53.151Z,26.05
2023-05-06T00:30:19.497Z,32.50
2023-05-06T00:32:46.096Z,29.45
2023-05-06T00:35:12.549Z,29.95
2023-05-06T00:37:38.857Z,31.77
2023-05-06T00:40:05.732Z,32.35
2023-05-06T00:42:32.896Z,27.95
2023-05-06T00:44:59.198Z,30.40
2023-05-06T00:47:25.815Z,32.20
2023-05-06T00:49:52.241Z,25.58
2023-05-06T00:52:19.750Z,26.02
2023-05-06T00:54:46.101Z,25.33
2023-05-06T00:57:12.520Z,27.63
2023-05-06T00:59:39.599Z,25.27
2023-05-06T01:02:05.951Z,25.15
2023-05-06T01:04:33.506Z,24.30
2023-05-06T01:07:17.512Z,27.38
2023-05-06T01:09:52.525Z,29.38
2023-05-06T01:12:37.276Z,24.42
2023-05-06T01:15:34.380Z,24.60
2023-05-06T01:18:04.214Z,26.48
2023-05-06T01:20:31.644Z,22.55
2023-05-06T01:22:58.042Z,24.08
2023-05-06T01:25:24.454Z,25.25
2023-05-06T01:27:50.833Z,24.17
2023-05-06T01:30:19.335Z,22.73
2023-05-06T01:33:10.702Z,28.60
2023-05-06T01:38:40.475Z,24.95
2023-05-06T01:41:08.263Z,27.60
2023-05-06T01:43:40.462Z,30.92
2023-05-06T01:46:10.993Z,25.00
2023-05-06T01:48:39.528Z,28.80
2023-05-06T01:51:05.944Z,27.33
2023-05-06T01:53:33.098Z,29.08
2023-05-06T01:55:59.411Z,27.48
2023-05-06T01:58:25.942Z,26.67
2023-05-06T02:00:52.295Z,28.52
2023-05-06T02:03:18.983Z,30.25
2023-05-06T02:05:45.602Z,25.63
2023-05-06T02:08:11.913Z,27.60
2023-05-06T02:10:38.262Z,28.63
2023-05-06T02:13:05.131Z,23.85
2023-05-06T02:15:31.494Z,28.67
2023-05-06T02:17:59.758Z,24.73
2023-05-06T02:20:26.234Z,26.33
2023-05-06T02:22:52.573Z,25.73
2023-05-06T02:25:18.930Z,26.65
2023-05-06T02:27:45.462Z,25.15
2023-05-06T02:30:12.051Z,24.73
2023-05-06T02:32:38.406Z,24.88
2023-05-06T02:35:05.232Z,23.50
2023-05-06T02:37:31.551Z,20.33
2023-05-06T02:39:57.944Z,23.90
2023-05-06T02:42:24.533Z,23.48
2023-05-06T02:44:51.337Z,23.80
2023-05-06T02:47:17.694Z,26.10
2023-05-06T02:49:44.052Z,31.20
2023-05-06T02:52:10.381Z,26.77
2023-05-06T02:54:36.689Z,28.52
2023-05-06T02:57:03.061Z,25.48
2023-05-06T02:59:29.474Z,26.63
2023-05-06T03:01:56.642Z,24.40
2023-05-06T03:04:23.351Z,26.27
2023-05-06T03:06:49.725Z,27.48
2023-05-06T03:09:16.013Z,23.95
2023-05-06T03:11:42.374Z,23.65
2023-05-06T03:14:08.701Z,31.65
2023-05-06T03:16:35.370Z,26.50
2023-05-06T03:19:05.671Z,28.73
2023-05-06T03:21:33.536Z,32.00
2023-05-06T03:23:59.889Z,32.60
2023-05-06T03:26:26.383Z,28.58
2023-05-06T03:28:52.722Z,30.63
2023-05-06T03:31:19.126Z,33.13
2023-05-06T03:33:45.500Z,36.97
2023-05-06T03:36:13.906Z,30.08
2023-05-06T03:38:41.096Z,29.70
2023-05-06T03:41:08.430Z,31.48
2023-05-06T03:43:34.869Z,37.50
2023-05-06T03:46:01.227Z,31.55
2023-05-06T03:48:27.608Z,28.45
2023-05-06T03:50:54.020Z,31.38
2023-05-06T03:53:20.376Z,31.38
2023-05-06T03:55:46.672Z,32.97
2023-05-06T03:58:13.067Z,34.83
2023-05-06T04:00:39.377Z,32.03
2023-05-06T04:03:05.706Z,31.45
2023-05-06T04:05:32.053Z,38.75
2023-05-06T04:07:58.365Z,34.90
2023-05-06T04:10:24.677Z,32.00
2023-05-06T04:12:50.998Z,30.95
2023-05-06T04:15:17.438Z,31.60
2023-05-06T04:17:43.756Z,34.53
2023-05-06T04:20:10.781Z,35.53
2023-05-06T04:22:38.285Z,32.38
2023-05-06T04:25:05.002Z,32.75
2023-05-06T04:27:32.067Z,32.20
2023-05-06T04:29:58.607Z,35.13
2023-05-06T04:32:28.010Z,37.78
2023-05-06T04:34:54.375Z,33.30
2023-05-06T04:37:21.017Z,32.17
2023-05-06T04:39:47.352Z,35.65
2023-05-06T04:42:14.592Z,36.97
2023-05-06T04:44:41.815Z,35.83
2023-05-06T04:47:08.192Z,37.40
2023-05-06T04:49:34.904Z,39.53
2023-05-06T04:52:01.797Z,35.65
2023-05-06T04:54:28.105Z,35.25
2023-05-06T04:56:54.507Z,31.58
2023-05-06T04:59:20.942Z,32.15
2023-05-06T05:01:47.325Z,31.58
2023-05-06T05:04:13.670Z,32.15
2023-05-06T05:06:39.989Z,33.72
2023-05-06T05:09:06.382Z,31.05
2023-05-06T05:11:32.684Z,32.28
2023-05-06T05:14:00.226Z,32.38
2023-05-06T05:16:28.605Z,28.73
2023-05-06T05:18:55.014Z,26.88
2023-05-06T05:21:21.315Z,28.85
2023-05-06T05:23:47.665Z,26.42
2023-05-06T05:26:14.146Z,26.15
2023-05-06T05:28:40.517Z,26.63
2023-05-06T05:31:09.675Z,25.38
2023-05-06T05:33:36.962Z,23.80
2023-05-06T05:36:04.131Z,26.77
2023-05-06T05:38:30.445Z,24.90
2023-05-06T05:40:56.853Z,22.50
2023-05-06T05:43:25.816Z,22.10
2023-05-06T05:45:52.289Z,21.63
2023-05-06T05:48:18.636Z,22.10
2023-05-06T05:50:45.818Z,22.20
2023-05-06T05:53:12.160Z,27.10
2023-05-06T05:55:38.464Z,23.55
2023-05-06T05:58:04.780Z,25.08
2023-05-06T06:00:31.185Z,26.55
2023-05-06T06:02:57.630Z,26.33
2023-05-06T06:05:23.988Z,25.02
2023-05-06T06:07:50.457Z,22.77
2023-05-06T06:10:16.863Z,21.42
2023-05-06T06:12:44.504Z,24.25
2023-05-06T06:15:11.659Z,19.45
2023-05-06T06:17:38.282Z,19.50
2023-05-06T06:20:05.331Z,22.27
2023-05-06T06:22:31.644Z,17.90
2023-05-06T06:24:58.000Z,18.02
2023-05-06T06:27:24.404Z,16.98
2023-05-06T06:29:50.760Z,14.20
2023-05-06T06:32:17.125Z,15.25
2023-05-06T06:34:43.642Z,17.02
2023-05-06T06:37:10.641Z,14.23
2023-05-06T06:39:36.943Z,14.05
2023-05-06T06:42:06.912Z,14.18
2023-05-06T06:44:33.993Z,14.95
2023-05-06T06:47:00.402Z,16.55
2023-05-06T06:49:27.407Z,15.57
2023-05-06T06:51:53.830Z,14.60
2023-05-06T06:54:20.328Z,15.25
2023-05-06T06:56:46.632Z,13.45
2023-05-06T06:59:12.928Z,15.63
2023-05-06T07:01:41.304Z,12.55
2023-05-06T07:04:07.778Z,14.43
2023-05-06T07:06:34.141Z,16.80
2023-05-06T07:09:00.690Z,14.68
2023-05-06T07:11:27.141Z,13.93
2023-05-06T07:13:53.482Z,15.60
2023-05-06T07:16:20.345Z,13.77
2023-05-06T07:18:46.698Z,15.20
2023-05-06T07:21:12.982Z,15.45
2023-05-06T07:23:39.286Z,16.33
2023-05-06T07:26:05.703Z,14.93
2023-05-06T07:28:32.037Z,13.40
2023-05-06T07:30:58.364Z,12.60
2023-05-06T07:33:24.794Z,13.40
2023-05-06T07:35:53.633Z,14.20
2023-05-06T07:38:22.915Z,13.27
2023-05-06T07:40:49.873Z,16.02
2023-05-06T07:43:16.251Z,13.05
2023-05-06T07:45:42.577Z,14.75
2023-05-06T07:48:08.975Z,16.05
2023-05-06T07:50:35.470Z,14.82
2023-05-06T07:53:01.837Z,13.68
2023-05-06T07:55:28.292Z,12.98
2023-05-06T07:57:54.572Z,11.98
2023-05-06T08:00:21.040Z,13.68
2023-05-06T08:02:48.506Z,16.02
2023-05-06T08:05:15.184Z,11.85
2023-05-06T08:07:42.407Z,14.80
2023-05-06T08:10:09.683Z,12.13
2023-05-06T08:12:36.614Z,13.85
2023-05-06T08:15:04.034Z,12.10
2023-05-06T08:17:30.439Z,13.98
2023-05-06T08:19:56.768Z,10.27
2023-05-06T08:22:23.082Z,12.48
2023-05-06T08:24:49.385Z,10.98
2023-05-06T08:27:15.713Z,11.93
2023-05-06T08:29:42.013Z,9.52
2023-05-06T08:32:08.444Z,11.32
2023-05-06T08:34:34.885Z,13.85
2023-05-06T08:37:01.899Z,11.75
2023-05-06T08:39:28.863Z,10.32
2023-05-06T08:41:56.336Z,11.27
2023-05-06T08:44:24.568Z,16.65
2023-05-06T08:46:51.393Z,11.43
2023-05-06T08:49:17.906Z,8.10
2023-05-06T08:51:45.012Z,8.77
2023-05-06T08:54:12.793Z,10.68
2023-05-06T08:56:43.291Z,9.25
2023-05-06T08:59:09.728Z,8.95
2023-05-06T09:01:36.978Z,8.20
2023-05-06T09:04:04.044Z,7.40
2023-05-06T09:06:30.420Z,8.65
2023-05-06T09:08:56.746Z,9.00
2023-05-06T09:11:25.650Z,9.77
2023-05-06T09:14:13.522Z,8.95
2023-05-06T09:16:42.532Z,7.97
2023-05-06T09:19:08.907Z,6.47
2023-05-06T09:21:36.941Z,7.25
2023-05-06T09:24:05.970Z,9.18
2023-05-06T09:26:33.795Z,7.00
2023-05-06T09:29:01.065Z,8.68
2023-05-06T09:31:28.582Z,7.90
2023-05-06T09:33:58.691Z,11.10
2023-05-06T09:36:27.467Z,8.38
2023-05-06T09:38:55.547Z,9.07
2023-05-06T09:41:26.798Z,9.55
2023-05-06T09:43:54.333Z,8.80
2023-05-06T09:46:25.140Z,7.22
2023-05-06T09:48:54.419Z,10.38
2023-05-06T09:51:21.261Z,7.55
2023-05-06T09:53:48.571Z,10.25
2023-05-06T09:56:16.046Z,7.15
2023-05-06T09:58:42.882Z,7.22
2023-05-06T10:01:09.559Z,7.03
2023-05-06T10:03:36.456Z,8.27
2023-05-06T10:06:05.891Z,9.77
2023-05-06T10:08:33.981Z,9.30
2023-05-06T10:11:05.076Z,9.68
2023-05-06T10:16:00.510Z,6.63
2023-05-06T10:18:29.596Z,6.78
2023-05-06T10:20:59.230Z,6.97
2023-05-06T10:23:44.226Z,6.32
2023-05-06T10:26:12.565Z,9.55
2023-05-06T10:28:43.464Z,7.97
2023-05-06T10:31:14.109Z,8.20
2023-05-06T10:33:44.567Z,7.38
2023-05-06T10:36:21.456Z,7.43
2023-05-06T10:39:00.396Z,7.35
2023-05-06T10:41:28.429Z,5.30
2023-05-06T10:43:59.790Z,6.53
2023-05-06T10:46:28.173Z,6.07
2023-05-06T10:49:04.266Z,6.50
2023-05-06T10:51:31.617Z,8.57
2023-05-06T10:54:16.977Z,6.03
2023-05-06T10:56:50.610Z,6.60
2023-05-06T10:59:29.507Z,7.25
2023-05-06T11:01:57.237Z,9.30
2023-05-06T11:04:23.739Z,9.73
2023-05-06T11:06:52.967Z,8.32
2023-05-06T11:09:20.406Z,5.25
2023-05-06T11:12:01.831Z,7.72
2023-05-06T11:14:35.933Z,5.93
2023-05-06T11:17:28.637Z,8.77
2023-05-06T11:20:19.259Z,5.03
2023-05-06T11:22:45.571Z,7.40
2023-05-06T11:25:12.127Z,6.35
2023-05-06T11:27:38.553Z,8.27
2023-05-06T11:30:05.579Z,6.30
2023-05-06T11:32:33.160Z,8.90
2023-05-06T11:34:59.601Z,6.25
2023-05-06T11:37:28.394Z,5.20
2023-05-06T11:39:55.426Z,6.15
2023-05-06T11:42:26.720Z,5.20
2023-05-06T11:45:00.421Z,6.43
2023-05-06T11:47:26.771Z,5.30
2023-05-06T11:49:56.100Z,6.57
2023-05-06T11:52:22.457Z,6.10
2023-05-06T11:54:52.038Z,6.22
2023-05-06T11:57:19.866Z,6.35
2023-05-06T11:59:46.307Z,6.13
2023-05-06T12:02:14.018Z,7.38
2023-05-06T12:04:46.314Z,4.65
2023-05-06T12:07:14.430Z,6.22
2023-05-06T12:09:43.900Z,5.97
2023-05-06T12:12:12.284Z,5.70
2023-05-06T12:14:39.407Z,4.65
2023-05-06T12:17:06.124Z,5.15
2023-05-06T12:19:33.298Z,3.55
2023-05-06T12:22:24.382Z,4.90
2023-05-06T12:27:33.510Z,6.25
2023-05-06T12:30:00.588Z,3.70
2023-05-06T12:32:28.011Z,3.95
2023-05-06T12:34:54.518Z,4.55
2023-05-06T12:37:30.284Z,6.07
2023-05-06T12:39:59.189Z,3.63
2023-05-06T12:42:34.122Z,4.47
2023-05-06T12:45:13.457Z,3.58
2023-05-06T12:47:39.841Z,4.90
2023-05-06T12:50:06.683Z,3.42
2023-05-06T12:52:33.347Z,4.93
2023-05-06T12:55:01.478Z,4.28
2023-05-06T12:57:27.897Z,3.45
2023-05-06T12:59:56.059Z,3.20
2023-05-06T13:02:22.519Z,3.63
2023-05-06T13:04:49.264Z,4.72
2023-05-06T13:07:15.664Z,3.00
2023-05-06T13:09:42.005Z,4.68
2023-05-06T13:12:08.449Z,6.47
2023-05-06T13:14:35.266Z,3.67
2023-05-06T13:17:04.657Z,3.50
2023-05-06T13:19:33.317Z,4.20
2023-05-06T13:22:00.741Z,3.58
2023-05-06T13:24:27.487Z,5.28
2023-05-06T13:26:53.855Z,3.78
2023-05-06T13:29:20.215Z,3.05
2023-05-06T13:31:46.573Z,2.88
2023-05-06T13:34:12.909Z,5.15
2023-05-06T13:36:39.305Z,3.55
2023-05-06T13:39:05.635Z,3.92
2023-05-06T13:41:32.609Z,3.20
2023-05-06T13:43:58.879Z,4.22
2023-05-06T13:46:27.082Z,4.93
2023-05-06T13:48:53.694Z,5.72
2023-05-06T13:51:20.059Z,2.80
2023-05-06T13:53:46.354Z,3.45
2023-05-06T13:56:12.783Z,5.90
2023-05-06T13:58:39.405Z,2.63
2023-05-06T14:01:06.013Z,3.08
2023-05-06T14:03:32.335Z,2.88
2023-05-06T14:05:58.863Z,3.45
2023-05-06T14:08:25.177Z,4.53
2023-05-06T14:10:51.493Z,4.05
2023-05-06T14:13:17.911Z,3.83
2023-05-06T14:15:44.459Z,3.65
2023-05-06T14:18:10.863Z,4.05
2023-05-06T14:20:37.219Z,1.88
2023-05-06T14:23:06.830Z,3.45
2023-05-06T14:25:33.213Z,3.25
2023-05-06T14:27:59.812Z,3.10
2023-05-06T14:30:26.184Z,3.28
2023-05-06T14:32:52.735Z,3.63
2023-05-06T14:35:19.218Z,4.32
2023-05-06T14:37:45.984Z,2.35
2023-05-06T14:40:12.660Z,1.77
2023-05-06T14:42:39.044Z,2.67
2023-05-06T14:45:06.010Z,5.60
2023-05-06T14:47:32.382Z,2.92
2023-05-06T14:49:58.768Z,2.08
2023-05-06T14:52:25.276Z,2.55
2023-05-06T14:54:51.588Z,3.97
2023-05-06T14:57:18.071Z,2.75
2023-05-06T14:59:44.497Z,2.88
2023-05-06T15:02:10.943Z,3.20
2023-05-06T15:04:37.319Z,6.80
2023-05-06T15:07:03.889Z,8.73
2023-05-06T15:09:30.769Z,3.40
2023-05-06T15:11:57.533Z,3.05
2023-05-06T15:14:23.945Z,4.13
2023-05-06T15:16:50.366Z,3.95
2023-05-06T15:19:16.711Z,3.25
2023-05-06T15:21:43.063Z,3.05
2023-05-06T15:24:09.366Z,3.20
2023-05-06T15:26:35.800Z,3.58
2023-05-06T15:29:02.103Z,2.65
2023-05-06T15:31:28.478Z,3.63
2023-05-06T15:33:55.194Z,2.45
2023-05-06T15:36:21.486Z,2.55
2023-05-06T15:38:50.529Z,3.70
2023-05-06T15:41:16.977Z,3.60
2023-05-06T15:43:43.363Z,2.35
2023-05-06T15:46:09.939Z,3.40
2023-05-06T15:48:36.715Z,3.38
2023-05-06T15:51:03.092Z,2.30
2023-05-06T15:53:29.392Z,4.32
2023-05-06T15:55:57.983Z,1.90
2023-05-06T15:58:30.406Z,4.63
2023-05-06T16:00:56.874Z,1.88
2023-05-06T16:03:23.250Z,4.32
2023-05-06T16:05:50.209Z,3.55
2023-05-06T16:08:16.550Z,3.35
2023-05-06T16:10:43.034Z,2.53
2023-05-06T16:13:09.365Z,4.20
2023-05-06T16:15:36.483Z,2.70
2023-05-06T16:18:02.969Z,4.25
2023-05-06T16:20:30.238Z,4.00
2023-05-06T16:22:56.542Z,2.22
2023-05-06T16:25:22.964Z,2.33
2023-05-06T16:27:49.285Z,3.10
2023-05-06T16:30:15.848Z,2.85
2023-05-06T16:32:42.317Z,1.80
2023-05-06T16:35:09.360Z,4.75
2023-05-06T16:37:36.456Z,2.10
2023-05-06T16:40:04.278Z,3.95
2023-05-06T16:42:30.787Z,3.08
2023-05-06T16:44:57.590Z,3.83
2023-05-06T16:47:27.240Z,2.47
2023-05-06T16:49:53.623Z,2.35
2023-05-06T16:52:20.140Z,2.00
2023-05-06T16:54:46.464Z,3.70
2023-05-06T16:57:12.902Z,1.67
2023-05-06T16:59:39.204Z,3.05
2023-05-06T17:02:05.614Z,1.48
2023-05-06T17:04:31.907Z,2.13
2023-05-06T17:06:58.553Z,3.05
2023-05-06T17:09:24.921Z,6.03
2023-05-06T17:11:51.231Z,4.90
2023-05-06T17:14:19.629Z,2.05
2023-05-06T17:16:46.924Z,4.15
2023-05-06T17:19:13.431Z,2.25
2023-05-06T17:21:39.827Z,1.42
2023-05-06T17:24:06.632Z,5.75
2023-05-06T17:26:33.883Z,2.65
2023-05-06T17:29:01.104Z,1.95
2023-05-06T17:31:27.488Z,3.47
2023-05-06T17:33:53.865Z,1.10
2023-05-06T17:36:23.293Z,1.77
2023-05-06T17:39:02.096Z,2.40
2023-05-06T17:41:28.397Z,1.70
2023-05-06T17:43:54.697Z,2.30
2023-05-06T17:46:21.033Z,2.38
2023-05-06T17:48:47.422Z,3.67
2023-05-06T17:51:13.782Z,5.82
2023-05-06T17:53:40.154Z,3.67
2023-05-06T17:56:06.544Z,3.90
2023-05-06T17:58:32.907Z,4.40
2023-05-06T18:00:59.255Z,7.25
2023-05-06T18:03:25.884Z,3.72
2023-05-06T18:05:52.317Z,5.28
2023-05-06T18:08:18.649Z,4.03
2023-05-06T18:10:44.972Z,6.88
2023-05-06T18:13:11.395Z,3.20
2023-05-06T18:15:37.761Z,4.30
2023-05-06T18:18:04.295Z,4.90
2023-05-06T18:20:30.682Z,5.28
2023-05-06T18:22:58.599Z,3.55
2023-05-06T18:25:25.252Z,5.03
2023-05-06T18:27:51.887Z,3.78
2023-05-06T18:30:18.221Z,5.15
2023-05-06T18:32:44.645Z,6.90
2023-05-06T18:35:11.512Z,3.88
2023-05-06T18:37:38.382Z,3.05
2023-05-06T18:40:05.969Z,4.10
2023-05-06T18:42:33.891Z,4.90
2023-05-06T18:45:02.944Z,4.38
2023-05-06T18:47:29.251Z,3.72
2023-05-06T18:49:57.452Z,5.97
2023-05-06T18:52:23.729Z,3.63
2023-05-06T18:54:50.153Z,5.43
2023-05-06T18:57:16.510Z,4.03
2023-05-06T18:59:43.004Z,4.65
2023-05-06T19:02:09.369Z,5.10
2023-05-06T19:04:35.912Z,5.60
2023-05-06T19:07:02.723Z,2.45
2023-05-06T19:09:29.036Z,2.97
2023-05-06T19:11:55.672Z,2.97
2023-05-06T19:14:23.561Z,3.65
2023-05-06T19:16:51.327Z,2.92
2023-05-06T19:19:17.655Z,2.50
2023-05-06T19:21:43.979Z,3.83
2023-05-06T19:24:10.315Z,3.50
2023-05-06T19:26:38.577Z,3.13
2023-05-06T19:29:04.917Z,3.35
2023-05-06T19:31:31.500Z,4.93
2023-05-06T19:33:58.005Z,3.80
2023-05-06T19:36:24.343Z,2.42
2023-05-06T19:38:50.674Z,3.20
2023-05-06T19:41:16.991Z,13.48
2023-05-06T19:43:44.062Z,4.43
2023-05-06T19:46:11.429Z,4.85
2023-05-06T19:48:38.916Z,3.63
2023-05-06T19:51:06.461Z,2.42
2023-05-06T19:53:33.702Z,2.80
2023-05-06T19:56:11.501Z,2.60
2023-05-06T19:58:38.278Z,2.28
2023-05-06T20:01:04.653Z,3.05
2023-05-06T20:03:32.284Z,4.75
2023-05-06T20:05:58.978Z,1.83
2023-05-06T20:08:25.893Z,2.42
2023-05-06T20:10:52.242Z,2.17
2023-05-06T20:13:18.824Z,2.58
2023-05-06T20:15:45.650Z,3.38
2023-05-06T20:18:12.011Z,4.45
2023-05-06T20:20:41.762Z,2.10
2023-05-06T20:23:08.100Z,3.13
2023-05-06T20:25:37.028Z,3.15
2023-05-06T20:28:05.224Z,3.70
2023-05-06T20:30:31.758Z,4.93
2023-05-06T20:32:58.621Z,2.17
2023-05-06T20:35:25.665Z,4.25
2023-05-06T20:37:54.222Z,2.85
2023-05-06T20:40:20.903Z,4.40
2023-05-06T20:42:47.976Z,5.07
2023-05-06T20:45:14.350Z,7.05
2023-05-06T20:47:40.914Z,4.40
2023-05-06T20:50:07.464Z,4.18
2023-05-06T20:52:33.946Z,3.70
2023-05-06T20:55:00.983Z,3.72
2023-05-06T20:57:28.309Z,4.13
2023-05-06T20:59:55.939Z,3.15
2023-05-06T21:02:22.447Z,3.17
2023-05-06T21:04:48.899Z,4.68
2023-05-06T21:07:15.263Z,4.22
2023-05-06T21:09:41.588Z,4.78
2023-05-06T21:12:07.937Z,2.70
2023-05-06T21:14:34.352Z,4.18
2023-05-06T21:17:00.734Z,3.97
2023-05-06T21:19:27.124Z,4.07
2023-05-06T21:21:53.493Z,6.38
2023-05-06T21:24:19.820Z,3.97
2023-05-06T21:26:46.712Z,3.92
2023-05-06T21:29:13.011Z,4.88
2023-05-06T21:31:39.373Z,6.53
2023-05-06T21:34:07.837Z,3.65
2023-05-06T21:36:36.136Z,4.20
2023-05-06T21:39:11.963Z,6.40
2023-05-06T21:41:38.735Z,5.15
2023-05-06T21:44:06.508Z,4.88
2023-05-06T21:46:33.344Z,3.72
2023-05-06T21:49:00.500Z,4.55
2023-05-06T21:51:28.077Z,4.43
2023-05-06T21:53:54.547Z,5.20
2023-05-06T21:56:21.335Z,4.13
2023-05-06T21:58:47.815Z,4.97
2023-05-06T22:01:14.164Z,6.18
2023-05-06T22:03:40.746Z,9.63
2023-05-06T22:06:07.300Z,6.63
2023-05-06T22:08:33.682Z,7.30
2023-05-06T22:11:00.008Z,8.73
2023-05-06T22:13:27.247Z,8.48
2023-05-06T22:15:54.255Z,7.10
2023-05-06T22:18:20.641Z,7.80
2023-05-06T22:20:49.001Z,6.05
2023-05-06T22:23:15.481Z,7.35
2023-05-06T22:25:41.847Z,6.25
2023-05-06T22:28:08.134Z,7.03
2023-05-06T22:30:34.483Z,7.68
2023-05-06T22:33:00.994Z,9.20
2023-05-06T22:35:27.354Z,8.15
2023-05-06T22:37:53.679Z,8.07
2023-05-06T22:40:20.025Z,9.82
2023-05-06T22:42:47.829Z,6.38
2023-05-06T22:45:14.152Z,9.32
2023-05-06T22:47:40.752Z,8.70
2023-05-06T22:50:08.011Z,6.82
2023-05-06T22:52:34.386Z,8.93
2023-05-06T22:55:00.703Z,9.52
2023-05-06T22:57:27.031Z,8.45
2023-05-06T22:59:53.367Z,8.10
2023-05-06T23:02:19.683Z,6.60
2023-05-06T23:04:46.030Z,8.70
2023-05-06T23:07:13.703Z,6.88
2023-05-06T23:09:40.240Z,7.40
2023-05-06T23:12:06.551Z,7.30
2023-05-06T23:14:32.919Z,6.75
2023-05-06T23:16:59.224Z,7.30
2023-05-06T23:19:25.861Z,5.90
2023-05-06T23:21:52.257Z,7.07
2023-05-06T23:24:18.617Z,7.75
2023-05-06T23:26:44.910Z,7.90
2023-05-06T23:29:11.253Z,9.73
2023-05-06T23:31:37.638Z,8.93
2023-05-06T23:34:03.930Z,8.77
2023-05-06T23:36:30.712Z,8.35
2023-05-06T23:38:56.998Z,9.57
2023-05-06T23:41:23.444Z,8.38
2023-05-06T23:43:49.772Z,9.10
2023-05-06T23:46:16.213Z,9.50
2023-05-06T23:48:42.586Z,7.32
2023-05-06T23:51:08.886Z,7.13
2023-05-06T23:53:35.987Z,9.02
2023-05-06T23:56:02.644Z,8.05
2023-05-06T23:58:29.051Z,8.25
